Řízení letového provozu České republiky
Letiste: LKKV Aktualizace: 28.09.2016 20:08:14  UTC
 METAR LKKV 28.09. 20:00 ...
METAR LKKV 282000Z 25007KT 220V280 CAVOK 15/09 Q1025 RMK REG QNH 1021=
 TAF LKKV 28.09. 17:00 ...
TAF LKKV 281700Z 2818/2924 26004KT CAVOK      TEMPO 2903/2908 1500 MIFG BKN005      TEMPO 2910/2918 24012KT=